sensor_id;sensor_type;location;lat;lon;timestamp;P1;durP1;ratioP1;P2;durP2;ratioP2
4448;SDS011;2237;51.870;6.160;2024-03-07T00:02:20;43.20;;;16.60;;
4448;SDS011;2237;51.870;6.160;2024-03-07T00:04:47;47.15;;;17.65;;
4448;SDS011;2237;51.870;6.160;2024-03-07T00:07:13;29.95;;;12.40;;
4448;SDS011;2237;51.870;6.160;2024-03-07T00:09:40;44.92;;;17.95;;
4448;SDS011;2237;51.870;6.160;2024-03-07T00:12:06;43.35;;;15.50;;
4448;SDS011;2237;51.870;6.160;2024-03-07T00:14:33;39.92;;;16.02;;
4448;SDS011;2237;51.870;6.160;2024-03-07T00:17:01;39.22;;;16.17;;
4448;SDS011;2237;51.870;6.160;2024-03-07T00:19:29;50.15;;;17.83;;
4448;SDS011;2237;51.870;6.160;2024-03-07T00:21:56;45.25;;;17.75;;
4448;SDS011;2237;51.870;6.160;2024-03-07T00:24:23;44.08;;;17.80;;
4448;SDS011;2237;51.870;6.160;2024-03-07T00:26:50;45.03;;;17.40;;
4448;SDS011;2237;51.870;6.160;2024-03-07T00:29:17;50.88;;;19.02;;
4448;SDS011;2237;51.870;6.160;2024-03-07T00:31:47;42.78;;;17.88;;
4448;SDS011;2237;51.870;6.160;2024-03-07T00:34:14;43.90;;;17.27;;
4448;SDS011;2237;51.870;6.160;2024-03-07T00:36:51;49.10;;;17.88;;
4448;SDS011;2237;51.870;6.160;2024-03-07T00:39:18;51.40;;;18.20;;
4448;SDS011;2237;51.870;6.160;2024-03-07T00:41:46;43.78;;;16.83;;
4448;SDS011;2237;51.870;6.160;2024-03-07T00:44:12;49.45;;;19.05;;
4448;SDS011;2237;51.870;6.160;2024-03-07T00:46:41;44.92;;;18.65;;
4448;SDS011;2237;51.870;6.160;2024-03-07T00:49:07;42.88;;;16.77;;
4448;SDS011;2237;51.870;6.160;2024-03-07T00:51:34;37.72;;;15.23;;
4448;SDS011;2237;51.870;6.160;2024-03-07T00:54:00;46.05;;;17.02;;
4448;SDS011;2237;51.870;6.160;2024-03-07T00:56:27;45.47;;;18.40;;
4448;SDS011;2237;51.870;6.160;2024-03-07T00:58:54;42.80;;;15.05;;
4448;SDS011;2237;51.870;6.160;2024-03-07T01:01:22;42.15;;;16.88;;
4448;SDS011;2237;51.870;6.160;2024-03-07T01:03:49;45.40;;;17.25;;
4448;SDS011;2237;51.870;6.160;2024-03-07T01:06:16;41.65;;;16.17;;
4448;SDS011;2237;51.870;6.160;2024-03-07T01:08:42;49.83;;;18.90;;
4448;SDS011;2237;51.870;6.160;2024-03-07T01:11:09;39.63;;;16.33;;
4448;SDS011;2237;51.870;6.160;2024-03-07T01:13:37;35.67;;;15.45;;
4448;SDS011;2237;51.870;6.160;2024-03-07T01:16:05;42.60;;;16.13;;
4448;SDS011;2237;51.870;6.160;2024-03-07T01:18:32;36.45;;;13.63;;
4448;SDS011;2237;51.870;6.160;2024-03-07T01:21:02;45.22;;;17.27;;
4448;SDS011;2237;51.870;6.160;2024-03-07T01:23:30;44.00;;;18.55;;
4448;SDS011;2237;51.870;6.160;2024-03-07T01:25:57;49.33;;;18.50;;
4448;SDS011;2237;51.870;6.160;2024-03-07T01:28:25;33.78;;;12.52;;
4448;SDS011;2237;51.870;6.160;2024-03-07T01:30:56;45.22;;;19.25;;
4448;SDS011;2237;51.870;6.160;2024-03-07T01:33:24;42.88;;;17.77;;
4448;SDS011;2237;51.870;6.160;2024-03-07T01:35:51;49.97;;;18.92;;
4448;SDS011;2237;51.870;6.160;2024-03-07T01:38:18;41.55;;;13.82;;
4448;SDS011;2237;51.870;6.160;2024-03-07T01:40:44;46.95;;;17.95;;
4448;SDS011;2237;51.870;6.160;2024-03-07T01:43:11;44.05;;;17.35;;
4448;SDS011;2237;51.870;6.160;2024-03-07T01:45:38;46.15;;;16.55;;
4448;SDS011;2237;51.870;6.160;2024-03-07T01:48:05;36.78;;;15.30;;
4448;SDS011;2237;51.870;6.160;2024-03-07T01:50:33;33.17;;;13.93;;
4448;SDS011;2237;51.870;6.160;2024-03-07T01:53:00;42.15;;;18.17;;
4448;SDS011;2237;51.870;6.160;2024-03-07T01:55:27;47.17;;;18.52;;
4448;SDS011;2237;51.870;6.160;2024-03-07T01:57:56;48.38;;;18.63;;
4448;SDS011;2237;51.870;6.160;2024-03-07T02:00:25;45.28;;;18.38;;
4448;SDS011;2237;51.870;6.160;2024-03-07T02:02:52;38.55;;;15.13;;
4448;SDS011;2237;51.870;6.160;2024-03-07T02:05:20;42.00;;;17.38;;
4448;SDS011;2237;51.870;6.160;2024-03-07T02:07:47;46.28;;;18.83;;
4448;SDS011;2237;51.870;6.160;2024-03-07T02:10:14;37.20;;;14.73;;
4448;SDS011;2237;51.870;6.160;2024-03-07T02:12:40;32.30;;;14.35;;
4448;SDS011;2237;51.870;6.160;2024-03-07T02:15:07;37.70;;;15.48;;
4448;SDS011;2237;51.870;6.160;2024-03-07T02:17:34;44.22;;;16.38;;
4448;SDS011;2237;51.870;6.160;2024-03-07T02:20:02;45.35;;;18.50;;
4448;SDS011;2237;51.870;6.160;2024-03-07T02:22:30;27.42;;;11.25;;
4448;SDS011;2237;51.870;6.160;2024-03-07T02:24:56;36.03;;;14.65;;
4448;SDS011;2237;51.870;6.160;2024-03-07T02:27:23;38.03;;;12.43;;
4448;SDS011;2237;51.870;6.160;2024-03-07T02:29:49;45.38;;;16.00;;
4448;SDS011;2237;51.870;6.160;2024-03-07T02:32:17;33.20;;;13.00;;
4448;SDS011;2237;51.870;6.160;2024-03-07T02:34:43;27.02;;;13.30;;
4448;SDS011;2237;51.870;6.160;2024-03-07T02:37:10;37.78;;;15.82;;
4448;SDS011;2237;51.870;6.160;2024-03-07T02:39:36;47.45;;;19.10;;
4448;SDS011;2237;51.870;6.160;2024-03-07T02:42:03;33.15;;;13.73;;
4448;SDS011;2237;51.870;6.160;2024-03-07T02:44:29;35.22;;;14.25;;
4448;SDS011;2237;51.870;6.160;2024-03-07T02:46:58;47.85;;;18.23;;
4448;SDS011;2237;51.870;6.160;2024-03-07T02:49:24;34.92;;;13.60;;
4448;SDS011;2237;51.870;6.160;2024-03-07T02:51:51;25.17;;;10.40;;
4448;SDS011;2237;51.870;6.160;2024-03-07T02:54:20;49.30;;;20.58;;
4448;SDS011;2237;51.870;6.160;2024-03-07T02:56:46;42.90;;;17.88;;
4448;SDS011;2237;51.870;6.160;2024-03-07T02:59:13;38.47;;;14.25;;
4448;SDS011;2237;51.870;6.160;2024-03-07T03:01:39;34.03;;;14.93;;
4448;SDS011;2237;51.870;6.160;2024-03-07T03:04:07;39.28;;;16.27;;
4448;SDS011;2237;51.870;6.160;2024-03-07T03:06:33;38.80;;;17.08;;
4448;SDS011;2237;51.870;6.160;2024-03-07T03:09:00;43.65;;;16.65;;
4448;SDS011;2237;51.870;6.160;2024-03-07T03:11:27;47.78;;;19.45;;
4448;SDS011;2237;51.870;6.160;2024-03-07T03:13:53;47.92;;;18.95;;
4448;SDS011;2237;51.870;6.160;2024-03-07T03:16:20;41.05;;;15.77;;
4448;SDS011;2237;51.870;6.160;2024-03-07T03:19:07;49.60;;;18.83;;
4448;SDS011;2237;51.870;6.160;2024-03-07T03:21:35;39.83;;;16.77;;
4448;SDS011;2237;51.870;6.160;2024-03-07T03:24:01;44.45;;;16.73;;
4448;SDS011;2237;51.870;6.160;2024-03-07T03:26:28;30.70;;;12.10;;
4448;SDS011;2237;51.870;6.160;2024-03-07T03:28:55;41.28;;;14.80;;
4448;SDS011;2237;51.870;6.160;2024-03-07T03:31:21;48.33;;;18.65;;
4448;SDS011;2237;51.870;6.160;2024-03-07T03:33:48;47.38;;;18.35;;
4448;SDS011;2237;51.870;6.160;2024-03-07T03:36:14;44.53;;;19.35;;
4448;SDS011;2237;51.870;6.160;2024-03-07T03:38:41;45.90;;;18.77;;
4448;SDS011;2237;51.870;6.160;2024-03-07T03:41:07;34.65;;;14.25;;
4448;SDS011;2237;51.870;6.160;2024-03-07T03:43:34;36.55;;;14.43;;
4448;SDS011;2237;51.870;6.160;2024-03-07T03:46:00;41.65;;;16.27;;
4448;SDS011;2237;51.870;6.160;2024-03-07T03:48:28;27.63;;;12.02;;
4448;SDS011;2237;51.870;6.160;2024-03-07T03:50:55;57.97;;;20.83;;
4448;SDS011;2237;51.870;6.160;2024-03-07T03:53:21;46.92;;;14.80;;
4448;SDS011;2237;51.870;6.160;2024-03-07T03:55:48;36.35;;;14.55;;
4448;SDS011;2237;51.870;6.160;2024-03-07T03:58:15;25.77;;;10.77;;
4448;SDS011;2237;51.870;6.160;2024-03-07T04:00:42;48.22;;;17.98;;
4448;SDS011;2237;51.870;6.160;2024-03-07T04:03:09;48.35;;;19.30;;
4448;SDS011;2237;51.870;6.160;2024-03-07T04:05:35;44.92;;;18.75;;
4448;SDS011;2237;51.870;6.160;2024-03-07T04:08:02;40.83;;;15.52;;
4448;SDS011;2237;51.870;6.160;2024-03-07T04:10:30;47.08;;;18.38;;
4448;SDS011;2237;51.870;6.160;2024-03-07T04:12:56;43.72;;;15.77;;
4448;SDS011;2237;51.870;6.160;2024-03-07T04:15:23;52.47;;;19.67;;
4448;SDS011;2237;51.870;6.160;2024-03-07T04:17:52;45.83;;;17.92;;
4448;SDS011;2237;51.870;6.160;2024-03-07T04:20:19;55.28;;;21.17;;
4448;SDS011;2237;51.870;6.160;2024-03-07T04:22:46;48.45;;;19.98;;
4448;SDS011;2237;51.870;6.160;2024-03-07T04:25:13;49.80;;;21.35;;
4448;SDS011;2237;51.870;6.160;2024-03-07T04:27:40;49.10;;;19.58;;
4448;SDS011;2237;51.870;6.160;2024-03-07T04:30:07;50.90;;;19.27;;
4448;SDS011;2237;51.870;6.160;2024-03-07T04:32:36;46.88;;;18.88;;
4448;SDS011;2237;51.870;6.160;2024-03-07T04:35:04;51.72;;;19.75;;
4448;SDS011;2237;51.870;6.160;2024-03-07T04:37:34;29.58;;;11.65;;
4448;SDS011;2237;51.870;6.160;2024-03-07T04:40:07;49.30;;;18.90;;
4448;SDS011;2237;51.870;6.160;2024-03-07T04:42:46;48.58;;;19.88;;
4448;SDS011;2237;51.870;6.160;2024-03-07T04:45:17;47.25;;;19.25;;
4448;SDS011;2237;51.870;6.160;2024-03-07T04:47:44;49.13;;;19.08;;
4448;SDS011;2237;51.870;6.160;2024-03-07T04:50:12;36.10;;;13.70;;
4448;SDS011;2237;51.870;6.160;2024-03-07T04:52:43;41.28;;;16.55;;
4448;SDS011;2237;51.870;6.160;2024-03-07T04:55:10;38.17;;;14.30;;
4448;SDS011;2237;51.870;6.160;2024-03-07T04:57:37;33.63;;;13.13;;
4448;SDS011;2237;51.870;6.160;2024-03-07T05:00:06;31.88;;;14.20;;
4448;SDS011;2237;51.870;6.160;2024-03-07T05:02:33;43.05;;;16.65;;
4448;SDS011;2237;51.870;6.160;2024-03-07T05:05:00;44.17;;;16.80;;
4448;SDS011;2237;51.870;6.160;2024-03-07T05:07:26;37.00;;;15.02;;
4448;SDS011;2237;51.870;6.160;2024-03-07T05:09:53;43.40;;;15.35;;
4448;SDS011;2237;51.870;6.160;2024-03-07T05:12:19;38.97;;;16.02;;
4448;SDS011;2237;51.870;6.160;2024-03-07T05:14:46;33.47;;;11.77;;
4448;SDS011;2237;51.870;6.160;2024-03-07T05:17:12;44.65;;;18.17;;
4448;SDS011;2237;51.870;6.160;2024-03-07T05:19:39;45.40;;;18.27;;
4448;SDS011;2237;51.870;6.160;2024-03-07T05:22:05;29.55;;;13.20;;
4448;SDS011;2237;51.870;6.160;2024-03-07T05:24:32;48.30;;;17.65;;
4448;SDS011;2237;51.870;6.160;2024-03-07T05:27:00;47.17;;;17.83;;
4448;SDS011;2237;51.870;6.160;2024-03-07T05:29:27;41.30;;;17.10;;
4448;SDS011;2237;51.870;6.160;2024-03-07T05:31:53;26.65;;;10.43;;
4448;SDS011;2237;51.870;6.160;2024-03-07T05:34:20;27.67;;;12.35;;
4448;SDS011;2237;51.870;6.160;2024-03-07T05:36:49;43.13;;;17.48;;
4448;SDS011;2237;51.870;6.160;2024-03-07T05:39:16;40.45;;;16.40;;
4448;SDS011;2237;51.870;6.160;2024-03-07T05:41:44;37.10;;;13.80;;
4448;SDS011;2237;51.870;6.160;2024-03-07T05:44:12;34.90;;;14.52;;
4448;SDS011;2237;51.870;6.160;2024-03-07T05:46:40;47.58;;;17.40;;
4448;SDS011;2237;51.870;6.160;2024-03-07T05:49:08;33.63;;;13.77;;
4448;SDS011;2237;51.870;6.160;2024-03-07T05:51:34;37.95;;;14.65;;
4448;SDS011;2237;51.870;6.160;2024-03-07T05:54:01;44.10;;;17.23;;
4448;SDS011;2237;51.870;6.160;2024-03-07T05:56:33;42.28;;;16.75;;
4448;SDS011;2237;51.870;6.160;2024-03-07T05:59:02;39.08;;;16.10;;
4448;SDS011;2237;51.870;6.160;2024-03-07T06:01:33;38.35;;;14.60;;
4448;SDS011;2237;51.870;6.160;2024-03-07T06:04:00;38.15;;;15.68;;
4448;SDS011;2237;51.870;6.160;2024-03-07T06:06:28;42.30;;;17.05;;
4448;SDS011;2237;51.870;6.160;2024-03-07T06:09:05;46.92;;;18.83;;
4448;SDS011;2237;51.870;6.160;2024-03-07T06:11:34;42.38;;;16.85;;
4448;SDS011;2237;51.870;6.160;2024-03-07T06:14:02;26.77;;;10.82;;
4448;SDS011;2237;51.870;6.160;2024-03-07T06:16:30;28.63;;;12.15;;
4448;SDS011;2237;51.870;6.160;2024-03-07T06:18:59;37.17;;;15.02;;
4448;SDS011;2237;51.870;6.160;2024-03-07T06:21:27;32.95;;;14.10;;
4448;SDS011;2237;51.870;6.160;2024-03-07T06:23:57;26.77;;;11.07;;
4448;SDS011;2237;51.870;6.160;2024-03-07T06:26:27;22.45;;;11.23;;
4448;SDS011;2237;51.870;6.160;2024-03-07T06:29:03;41.05;;;14.82;;
4448;SDS011;2237;51.870;6.160;2024-03-07T06:31:33;34.28;;;13.85;;
4448;SDS011;2237;51.870;6.160;2024-03-07T06:34:00;25.90;;;11.07;;
4448;SDS011;2237;51.870;6.160;2024-03-07T06:36:27;37.25;;;15.65;;
4448;SDS011;2237;51.870;6.160;2024-03-07T06:38:54;33.20;;;14.82;;
4448;SDS011;2237;51.870;6.160;2024-03-07T06:41:21;21.83;;;9.30;;
4448;SDS011;2237;51.870;6.160;2024-03-07T06:43:47;29.80;;;13.25;;
4448;SDS011;2237;51.870;6.160;2024-03-07T06:46:16;35.28;;;14.98;;
4448;SDS011;2237;51.870;6.160;2024-03-07T06:48:42;37.88;;;16.00;;
4448;SDS011;2237;51.870;6.160;2024-03-07T06:51:10;29.20;;;12.75;;
4448;SDS011;2237;51.870;6.160;2024-03-07T06:53:37;36.95;;;14.65;;
4448;SDS011;2237;51.870;6.160;2024-03-07T06:56:03;31.92;;;14.23;;
4448;SDS011;2237;51.870;6.160;2024-03-07T06:58:32;19.27;;;8.63;;
4448;SDS011;2237;51.870;6.160;2024-03-07T07:00:59;32.63;;;10.50;;
4448;SDS011;2237;51.870;6.160;2024-03-07T07:03:27;30.42;;;13.27;;
4448;SDS011;2237;51.870;6.160;2024-03-07T07:05:56;30.23;;;12.05;;
4448;SDS011;2237;51.870;6.160;2024-03-07T07:08:23;35.13;;;13.68;;
4448;SDS011;2237;51.870;6.160;2024-03-07T07:10:50;27.35;;;11.32;;
4448;SDS011;2237;51.870;6.160;2024-03-07T07:13:16;32.83;;;13.88;;
4448;SDS011;2237;51.870;6.160;2024-03-07T07:15:43;31.05;;;12.65;;
4448;SDS011;2237;51.870;6.160;2024-03-07T07:18:09;19.95;;;8.88;;
4448;SDS011;2237;51.870;6.160;2024-03-07T07:20:36;25.33;;;11.27;;
4448;SDS011;2237;51.870;6.160;2024-03-07T07:23:03;22.58;;;8.95;;
4448;SDS011;2237;51.870;6.160;2024-03-07T07:25:30;23.85;;;10.27;;
4448;SDS011;2237;51.870;6.160;2024-03-07T07:27:57;22.40;;;9.05;;
4448;SDS011;2237;51.870;6.160;2024-03-07T07:30:25;33.58;;;15.10;;
4448;SDS011;2237;51.870;6.160;2024-03-07T07:32:53;23.92;;;10.32;;
4448;SDS011;2237;51.870;6.160;2024-03-07T07:35:20;26.23;;;10.93;;
4448;SDS011;2237;51.870;6.160;2024-03-07T07:37:47;30.30;;;13.35;;
4448;SDS011;2237;51.870;6.160;2024-03-07T07:40:16;27.63;;;13.02;;
4448;SDS011;2237;51.870;6.160;2024-03-07T07:42:45;29.98;;;12.82;;
4448;SDS011;2237;51.870;6.160;2024-03-07T07:45:13;33.92;;;13.73;;
4448;SDS011;2237;51.870;6.160;2024-03-07T07:50:10;26.75;;;11.50;;
4448;SDS011;2237;51.870;6.160;2024-03-07T07:52:44;30.92;;;13.30;;
4448;SDS011;2237;51.870;6.160;2024-03-07T07:55:14;29.70;;;13.67;;
4448;SDS011;2237;51.870;6.160;2024-03-07T07:57:42;27.23;;;11.23;;
4448;SDS011;2237;51.870;6.160;2024-03-07T08:00:16;26.60;;;11.40;;
4448;SDS011;2237;51.870;6.160;2024-03-07T08:02:53;24.83;;;10.63;;
4448;SDS011;2237;51.870;6.160;2024-03-07T08:05:24;20.30;;;8.82;;
4448;SDS011;2237;51.870;6.160;2024-03-07T08:07:52;32.63;;;12.68;;
4448;SDS011;2237;51.870;6.160;2024-03-07T08:10:21;31.90;;;13.27;;
4448;SDS011;2237;51.870;6.160;2024-03-07T08:12:50;30.88;;;13.73;;
4448;SDS011;2237;51.870;6.160;2024-03-07T08:15:16;27.08;;;12.05;;
4448;SDS011;2237;51.870;6.160;2024-03-07T08:17:43;26.33;;;12.32;;
4448;SDS011;2237;51.870;6.160;2024-03-07T08:20:11;25.58;;;12.10;;
4448;SDS011;2237;51.870;6.160;2024-03-07T08:22:41;22.25;;;10.32;;
4448;SDS011;2237;51.870;6.160;2024-03-07T08:25:09;16.33;;;7.13;;
4448;SDS011;2237;51.870;6.160;2024-03-07T08:27:37;16.65;;;8.32;;
4448;SDS011;2237;51.870;6.160;2024-03-07T08:32:39;18.70;;;6.82;;
4448;SDS011;2237;51.870;6.160;2024-03-07T08:35:06;24.30;;;11.48;;
4448;SDS011;2237;51.870;6.160;2024-03-07T08:37:55;21.17;;;9.85;;
4448;SDS011;2237;51.870;6.160;2024-03-07T08:40:24;25.58;;;12.55;;
4448;SDS011;2237;51.870;6.160;2024-03-07T08:42:55;25.70;;;11.18;;
4448;SDS011;2237;51.870;6.160;2024-03-07T08:45:23;20.17;;;9.20;;
4448;SDS011;2237;51.870;6.160;2024-03-07T08:47:50;16.58;;;8.18;;
4448;SDS011;2237;51.870;6.160;2024-03-07T08:50:20;22.80;;;11.25;;
4448;SDS011;2237;51.870;6.160;2024-03-07T08:52:47;22.65;;;9.95;;
4448;SDS011;2237;51.870;6.160;2024-03-07T08:55:24;19.63;;;10.07;;
4448;SDS011;2237;51.870;6.160;2024-03-07T08:57:53;22.60;;;10.38;;
4448;SDS011;2237;51.870;6.160;2024-03-07T09:00:20;22.88;;;11.38;;
4448;SDS011;2237;51.870;6.160;2024-03-07T09:02:59;25.50;;;12.13;;
4448;SDS011;2237;51.870;6.160;2024-03-07T09:05:30;19.80;;;8.13;;
4448;SDS011;2237;51.870;6.160;2024-03-07T09:08:00;22.65;;;10.70;;
4448;SDS011;2237;51.870;6.160;2024-03-07T09:10:26;22.52;;;11.52;;
4448;SDS011;2237;51.870;6.160;2024-03-07T09:12:57;30.67;;;12.48;;
4448;SDS011;2237;51.870;6.160;2024-03-07T09:15:24;22.75;;;11.18;;
4448;SDS011;2237;51.870;6.160;2024-03-07T09:17:50;23.77;;;10.82;;
4448;SDS011;2237;51.870;6.160;2024-03-07T09:20:18;26.75;;;11.32;;
4448;SDS011;2237;51.870;6.160;2024-03-07T09:22:46;27.63;;;12.75;;
4448;SDS011;2237;51.870;6.160;2024-03-07T09:25:14;17.20;;;7.28;;
4448;SDS011;2237;51.870;6.160;2024-03-07T09:27:42;23.83;;;10.80;;
4448;SDS011;2237;51.870;6.160;2024-03-07T09:30:09;24.60;;;11.05;;
4448;SDS011;2237;51.870;6.160;2024-03-07T09:32:42;22.92;;;10.63;;
4448;SDS011;2237;51.870;6.160;2024-03-07T09:35:09;17.30;;;9.43;;
4448;SDS011;2237;51.870;6.160;2024-03-07T09:37:40;18.50;;;7.68;;
4448;SDS011;2237;51.870;6.160;2024-03-07T09:40:07;26.17;;;13.80;;
4448;SDS011;2237;51.870;6.160;2024-03-07T09:42:45;20.83;;;9.85;;
4448;SDS011;2237;51.870;6.160;2024-03-07T09:45:15;20.67;;;9.88;;
4448;SDS011;2237;51.870;6.160;2024-03-07T09:47:46;19.73;;;10.23;;
4448;SDS011;2237;51.870;6.160;2024-03-07T09:50:18;18.58;;;8.18;;
4448;SDS011;2237;51.870;6.160;2024-03-07T09:52:48;16.52;;;8.45;;
4448;SDS011;2237;51.870;6.160;2024-03-07T09:55:18;18.67;;;8.70;;
4448;SDS011;2237;51.870;6.160;2024-03-07T09:57:50;19.15;;;7.90;;
4448;SDS011;2237;51.870;6.160;2024-03-07T10:00:19;20.55;;;9.93;;
4448;SDS011;2237;51.870;6.160;2024-03-07T10:02:50;23.27;;;9.13;;
4448;SDS011;2237;51.870;6.160;2024-03-07T10:05:22;22.23;;;9.45;;
4448;SDS011;2237;51.870;6.160;2024-03-07T10:07:49;17.95;;;7.75;;
4448;SDS011;2237;51.870;6.160;2024-03-07T10:10:16;19.85;;;9.45;;
4448;SDS011;2237;51.870;6.160;2024-03-07T10:12:43;20.30;;;9.77;;
4448;SDS011;2237;51.870;6.160;2024-03-07T10:15:10;15.43;;;7.60;;
4448;SDS011;2237;51.870;6.160;2024-03-07T10:17:39;19.25;;;9.18;;
4448;SDS011;2237;51.870;6.160;2024-03-07T10:20:12;20.67;;;10.00;;
4448;SDS011;2237;51.870;6.160;2024-03-07T10:22:42;22.75;;;10.80;;
4448;SDS011;2237;51.870;6.160;2024-03-07T10:25:08;17.05;;;8.65;;
4448;SDS011;2237;51.870;6.160;2024-03-07T10:27:37;19.30;;;9.95;;
4448;SDS011;2237;51.870;6.160;2024-03-07T10:30:04;19.48;;;8.95;;
4448;SDS011;2237;51.870;6.160;2024-03-07T10:32:34;19.88;;;10.63;;
4448;SDS011;2237;51.870;6.160;2024-03-07T10:35:01;20.63;;;9.88;;
4448;SDS011;2237;51.870;6.160;2024-03-07T10:37:29;21.20;;;10.07;;
4448;SDS011;2237;51.870;6.160;2024-03-07T10:39:56;20.17;;;10.10;;
4448;SDS011;2237;51.870;6.160;2024-03-07T10:42:23;19.52;;;9.52;;
4448;SDS011;2237;51.870;6.160;2024-03-07T10:44:59;19.70;;;9.63;;
4448;SDS011;2237;51.870;6.160;2024-03-07T10:47:31;18.85;;;9.38;;
4448;SDS011;2237;51.870;6.160;2024-03-07T10:50:19;20.15;;;9.98;;
4448;SDS011;2237;51.870;6.160;2024-03-07T10:53:03;20.25;;;9.18;;
4448;SDS011;2237;51.870;6.160;2024-03-07T10:55:49;18.30;;;9.50;;
4448;SDS011;2237;51.870;6.160;2024-03-07T10:58:42;17.98;;;8.48;;
4448;SDS011;2237;51.870;6.160;2024-03-07T11:01:10;16.77;;;8.02;;
4448;SDS011;2237;51.870;6.160;2024-03-07T11:03:39;19.52;;;9.07;;
4448;SDS011;2237;51.870;6.160;2024-03-07T11:06:06;13.70;;;6.30;;
4448;SDS011;2237;51.870;6.160;2024-03-07T11:08:37;18.00;;;9.15;;
4448;SDS011;2237;51.870;6.160;2024-03-07T11:11:04;18.33;;;8.77;;
4448;SDS011;2237;51.870;6.160;2024-03-07T11:13:30;19.65;;;9.45;;
4448;SDS011;2237;51.870;6.160;2024-03-07T11:15:59;18.70;;;8.07;;
4448;SDS011;2237;51.870;6.160;2024-03-07T11:18:27;15.38;;;7.97;;
4448;SDS011;2237;51.870;6.160;2024-03-07T11:20:54;20.50;;;9.10;;
4448;SDS011;2237;51.870;6.160;2024-03-07T11:26:06;16.38;;;7.15;;
4448;SDS011;2237;51.870;6.160;2024-03-07T11:28:35;16.83;;;8.73;;
4448;SDS011;2237;51.870;6.160;2024-03-07T11:31:07;19.00;;;8.27;;
4448;SDS011;2237;51.870;6.160;2024-03-07T11:33:38;17.90;;;8.30;;
4448;SDS011;2237;51.870;6.160;2024-03-07T11:36:07;18.17;;;8.80;;
4448;SDS011;2237;51.870;6.160;2024-03-07T11:38:35;15.52;;;8.23;;
4448;SDS011;2237;51.870;6.160;2024-03-07T11:41:03;16.40;;;7.75;;
4448;SDS011;2237;51.870;6.160;2024-03-07T11:43:31;16.85;;;8.20;;
4448;SDS011;2237;51.870;6.160;2024-03-07T11:45:59;19.60;;;8.48;;
4448;SDS011;2237;51.870;6.160;2024-03-07T11:48:25;19.75;;;9.25;;
4448;SDS011;2237;51.870;6.160;2024-03-07T11:50:52;16.15;;;7.15;;
4448;SDS011;2237;51.870;6.160;2024-03-07T11:53:21;15.65;;;6.13;;
4448;SDS011;2237;51.870;6.160;2024-03-07T11:55:49;20.67;;;8.35;;
4448;SDS011;2237;51.870;6.160;2024-03-07T11:58:17;15.95;;;7.72;;
4448;SDS011;2237;51.870;6.160;2024-03-07T12:00:48;13.93;;;7.22;;
4448;SDS011;2237;51.870;6.160;2024-03-07T12:03:17;17.10;;;7.45;;
4448;SDS011;2237;51.870;6.160;2024-03-07T12:05:49;14.63;;;8.30;;
4448;SDS011;2237;51.870;6.160;2024-03-07T12:08:17;16.67;;;8.65;;
4448;SDS011;2237;51.870;6.160;2024-03-07T12:10:44;16.63;;;6.95;;
4448;SDS011;2237;51.870;6.160;2024-03-07T12:13:15;13.13;;;6.07;;
4448;SDS011;2237;51.870;6.160;2024-03-07T12:15:42;17.00;;;8.40;;
4448;SDS011;2237;51.870;6.160;2024-03-07T12:18:09;17.80;;;8.48;;
4448;SDS011;2237;51.870;6.160;2024-03-07T12:20:37;15.95;;;7.40;;
4448;SDS011;2237;51.870;6.160;2024-03-07T12:23:05;11.35;;;5.80;;
4448;SDS011;2237;51.870;6.160;2024-03-07T12:25:35;15.48;;;7.97;;
4448;SDS011;2237;51.870;6.160;2024-03-07T12:28:08;14.40;;;6.65;;
4448;SDS011;2237;51.870;6.160;2024-03-07T12:33:13;14.88;;;8.43;;
4448;SDS011;2237;51.870;6.160;2024-03-07T12:35:46;15.07;;;8.25;;
4448;SDS011;2237;51.870;6.160;2024-03-07T12:38:17;15.10;;;7.53;;
4448;SDS011;2237;51.870;6.160;2024-03-07T12:41:02;15.98;;;7.78;;
4448;SDS011;2237;51.870;6.160;2024-03-07T12:43:33;12.88;;;6.85;;
4448;SDS011;2237;51.870;6.160;2024-03-07T12:46:00;14.85;;;7.78;;
4448;SDS011;2237;51.870;6.160;2024-03-07T12:48:27;14.07;;;7.60;;
4448;SDS011;2237;51.870;6.160;2024-03-07T12:50:54;8.20;;;4.85;;
4448;SDS011;2237;51.870;6.160;2024-03-07T12:53:21;13.45;;;6.60;;
4448;SDS011;2237;51.870;6.160;2024-03-07T12:55:55;12.13;;;6.38;;
4448;SDS011;2237;51.870;6.160;2024-03-07T12:58:21;13.82;;;8.18;;
4448;SDS011;2237;51.870;6.160;2024-03-07T13:00:56;11.75;;;6.40;;
4448;SDS011;2237;51.870;6.160;2024-03-07T13:03:23;13.68;;;7.03;;
4448;SDS011;2237;51.870;6.160;2024-03-07T13:05:59;13.30;;;7.18;;
4448;SDS011;2237;51.870;6.160;2024-03-07T13:08:28;14.18;;;7.28;;
4448;SDS011;2237;51.870;6.160;2024-03-07T13:10:57;11.43;;;5.82;;
4448;SDS011;2237;51.870;6.160;2024-03-07T13:13:26;14.70;;;8.43;;
4448;SDS011;2237;51.870;6.160;2024-03-07T13:15:52;13.57;;;6.55;;
4448;SDS011;2237;51.870;6.160;2024-03-07T13:18:21;17.45;;;8.00;;
4448;SDS011;2237;51.870;6.160;2024-03-07T13:20:48;12.70;;;5.97;;
4448;SDS011;2237;51.870;6.160;2024-03-07T13:23:14;13.60;;;6.95;;
4448;SDS011;2237;51.870;6.160;2024-03-07T13:25:41;16.48;;;7.97;;
4448;SDS011;2237;51.870;6.160;2024-03-07T13:28:14;15.65;;;7.82;;
4448;SDS011;2237;51.870;6.160;2024-03-07T13:30:50;14.13;;;7.30;;
4448;SDS011;2237;51.870;6.160;2024-03-07T13:33:16;13.13;;;7.13;;
4448;SDS011;2237;51.870;6.160;2024-03-07T13:35:43;12.20;;;7.05;;
4448;SDS011;2237;51.870;6.160;2024-03-07T13:38:10;9.85;;;5.35;;
4448;SDS011;2237;51.870;6.160;2024-03-07T13:40:36;18.45;;;8.50;;
4448;SDS011;2237;51.870;6.160;2024-03-07T13:43:06;13.30;;;5.95;;
4448;SDS011;2237;51.870;6.160;2024-03-07T13:45:34;15.35;;;8.57;;
4448;SDS011;2237;51.870;6.160;2024-03-07T13:48:10;16.55;;;7.78;;
4448;SDS011;2237;51.870;6.160;2024-03-07T13:50:40;14.35;;;6.03;;
4448;SDS011;2237;51.870;6.160;2024-03-07T13:53:24;12.23;;;5.78;;
4448;SDS011;2237;51.870;6.160;2024-03-07T14:13:12;13.95;;;7.18;;
4448;SDS011;2237;51.870;6.160;2024-03-07T14:22:01;14.55;;;7.72;;
4448;SDS011;2237;51.870;6.160;2024-03-07T14:27:25;12.02;;;6.60;;
4448;SDS011;2237;51.870;6.160;2024-03-07T14:32:52;13.50;;;6.45;;
4448;SDS011;2237;51.870;6.160;2024-03-07T14:38:22;12.10;;;7.07;;
4448;SDS011;2237;51.870;6.160;2024-03-07T14:40:53;14.13;;;8.07;;
4448;SDS011;2237;51.870;6.160;2024-03-07T14:43:21;8.23;;;5.10;;
4448;SDS011;2237;51.870;6.160;2024-03-07T14:45:48;12.65;;;7.40;;
4448;SDS011;2237;51.870;6.160;2024-03-07T14:48:16;14.02;;;7.20;;
4448;SDS011;2237;51.870;6.160;2024-03-07T14:50:45;8.98;;;4.68;;
4448;SDS011;2237;51.870;6.160;2024-03-07T14:53:13;12.05;;;6.72;;
4448;SDS011;2237;51.870;6.160;2024-03-07T14:55:43;13.87;;;6.00;;
4448;SDS011;2237;51.870;6.160;2024-03-07T14:58:10;13.15;;;6.65;;
4448;SDS011;2237;51.870;6.160;2024-03-07T15:00:39;15.25;;;7.53;;
4448;SDS011;2237;51.870;6.160;2024-03-07T15:03:22;10.23;;;5.30;;
4448;SDS011;2237;51.870;6.160;2024-03-07T15:05:55;13.05;;;7.55;;
4448;SDS011;2237;51.870;6.160;2024-03-07T15:08:22;14.63;;;7.68;;
4448;SDS011;2237;51.870;6.160;2024-03-07T15:10:58;12.93;;;7.32;;
4448;SDS011;2237;51.870;6.160;2024-03-07T15:13:35;10.15;;;4.90;;
4448;SDS011;2237;51.870;6.160;2024-03-07T15:16:01;13.52;;;7.15;;
4448;SDS011;2237;51.870;6.160;2024-03-07T15:18:28;14.27;;;7.10;;
4448;SDS011;2237;51.870;6.160;2024-03-07T15:20:55;14.48;;;7.90;;
4448;SDS011;2237;51.870;6.160;2024-03-07T15:23:22;15.75;;;7.80;;
4448;SDS011;2237;51.870;6.160;2024-03-07T15:25:48;14.73;;;8.00;;
4448;SDS011;2237;51.870;6.160;2024-03-07T15:28:15;12.63;;;7.20;;
4448;SDS011;2237;51.870;6.160;2024-03-07T15:30:41;12.45;;;6.55;;
4448;SDS011;2237;51.870;6.160;2024-03-07T15:33:11;9.23;;;5.32;;
4448;SDS011;2237;51.870;6.160;2024-03-07T15:35:38;13.98;;;7.50;;
4448;SDS011;2237;51.870;6.160;2024-03-07T15:38:05;10.38;;;6.28;;
4448;SDS011;2237;51.870;6.160;2024-03-07T15:40:31;12.75;;;7.45;;
4448;SDS011;2237;51.870;6.160;2024-03-07T15:43:00;9.32;;;5.50;;
4448;SDS011;2237;51.870;6.160;2024-03-07T15:45:28;12.73;;;7.20;;